Terminal Aerodrome Forecast
Issued by NWS Louisville, KY

Home | Current Version | Previous Version | Text Only | Print | Product List | Glossary On
Versions: 1 2 3 4 5 6 7 8 9 10 11 12 13 14 15 16 17 18 19
599
FTUS43 KLMK 011059 AAB
TAFBWG
TAF AMD
KBWG 011059Z 0111/0206 20005KT 1/2SM FG VCSH BKN015
     FM011500 23008KT P6SM SCT025 BKN035
     FM011900 24007KT P6SM VCTS BKN035CB
      TEMPO 0119/0123 3SM -TSRA BKN035CB
     FM012300 24003KT P6SM SCT040 SCT200=

USA.gov is the U.S. government's official web portal to all federal, state and local government web resources and services.